createdAt,value
2018-06-27T02:53:01.934Z,8.67
2018-06-27T02:56:44.131Z,2.87
2018-06-27T04:12:05.810Z,3.87
2018-06-27T04:56:36.526Z,3.30
2018-06-27T05:30:33.679Z,4.80
2018-06-27T06:34:49.229Z,7.57
2018-06-27T07:07:21.021Z,3.37
2018-06-27T07:10:25.777Z,3.17
2018-06-27T07:12:57.261Z,4.50
2018-06-27T07:26:44.179Z,2.87
2018-06-27T07:33:28.404Z,4.47
2018-06-27T07:36:07.307Z,3.90
2018-06-27T07:39:21.297Z,3.60
2018-06-27T07:41:51.460Z,3.97
2018-06-27T07:44:57.376Z,4.50
2018-06-27T07:47:28.151Z,3.90
2018-06-27T07:50:03.500Z,3.10
2018-06-27T07:52:43.135Z,4.03
2018-06-27T07:55:15.382Z,5.10
2018-06-27T08:02:08.494Z,4.17
2018-06-27T08:05:57.806Z,3.80
2018-06-27T08:08:28.749Z,4.50
2018-06-27T08:10:58.803Z,3.60
2018-06-27T08:13:30.414Z,3.80
2018-06-27T08:16:04.457Z,5.53
2018-06-27T08:18:49.102Z,3.43
2018-06-27T08:21:34.328Z,3.87
2018-06-27T08:24:04.004Z,7.73
2018-06-27T08:26:48.424Z,4.33
2018-06-27T08:33:20.285Z,5.00
2018-06-27T08:35:56.693Z,3.47
2018-06-27T08:38:30.480Z,4.87
2018-06-27T08:41:15.972Z,4.37
2018-06-27T08:43:50.542Z,3.57
2018-06-27T08:46:19.433Z,4.23
2018-06-27T08:51:36.524Z,5.00
2018-06-27T08:54:06.611Z,6.40
2018-06-27T08:56:35.296Z,4.47
2018-06-27T08:59:06.024Z,4.40
2018-06-27T09:01:34.685Z,5.20
2018-06-27T09:04:03.421Z,8.90
2018-06-27T09:06:32.303Z,4.90
2018-06-27T09:09:02.115Z,5.20
2018-06-27T09:11:33.063Z,5.33
2018-06-27T09:14:02.861Z,8.47
2018-06-27T09:16:31.595Z,3.77
2018-06-27T09:19:00.478Z,3.97
2018-06-27T09:21:31.153Z,3.87
2018-06-27T09:23:59.853Z,4.03
2018-06-27T09:26:28.541Z,4.03
2018-06-27T09:28:57.213Z,3.40
2018-06-27T09:31:25.904Z,5.67
2018-06-27T09:33:55.831Z,3.30
2018-06-27T09:36:37.614Z,3.20
2018-06-27T09:39:09.441Z,3.37
2018-06-27T09:41:39.355Z,3.07
2018-06-27T09:44:16.964Z,4.40
2018-06-27T09:46:45.860Z,5.50
2018-06-27T09:49:14.649Z,3.33
2018-06-27T09:51:43.281Z,4.73
2018-06-27T09:54:12.028Z,2.63
2018-06-27T09:56:43.788Z,3.83
2018-06-27T09:59:13.628Z,3.93
2018-06-27T10:01:43.739Z,4.70
2018-06-27T10:04:12.667Z,3.97
2018-06-27T10:06:41.684Z,5.00
2018-06-27T10:09:12.889Z,5.43
2018-06-27T10:11:41.973Z,3.63
2018-06-27T10:14:10.909Z,4.70
2018-06-27T10:16:43.531Z,4.43
2018-06-27T10:19:13.340Z,5.17
2018-06-27T10:21:47.069Z,5.13
2018-06-27T10:24:16.102Z,4.70
2018-06-27T10:26:49.442Z,4.40
2018-06-27T10:29:20.432Z,4.20
2018-06-27T10:31:49.521Z,5.03
2018-06-27T10:34:18.640Z,9.30
2018-06-27T10:36:48.512Z,4.67
2018-06-27T10:39:19.428Z,4.07
2018-06-27T10:41:48.610Z,5.23
2018-06-27T10:44:17.647Z,6.13
2018-06-27T10:46:47.898Z,5.23
2018-06-27T10:49:17.059Z,5.50
2018-06-27T10:51:46.069Z,4.23
2018-06-27T10:54:15.179Z,5.30
2018-06-27T10:56:49.961Z,4.77
2018-06-27T10:59:20.108Z,5.93
2018-06-27T11:01:50.722Z,5.67
2018-06-27T11:04:19.715Z,8.70
2018-06-27T11:06:53.933Z,6.73
2018-06-27T11:12:55.462Z,4.53
2018-06-27T11:15:25.799Z,7.10
2018-06-27T11:17:54.947Z,6.17
2018-06-27T11:20:32.323Z,4.40
2018-06-27T11:25:50.166Z,4.20
2018-06-27T11:28:24.107Z,4.47
2018-06-27T11:31:51.280Z,4.67
2018-06-27T11:34:20.762Z,4.60
2018-06-27T11:37:03.712Z,4.40
2018-06-27T11:40:07.783Z,6.57
2018-06-27T11:42:36.843Z,5.63
2018-06-27T11:45:06.522Z,5.07
2018-06-27T11:47:37.359Z,4.50
2018-06-27T11:53:21.686Z,4.50
2018-06-27T11:55:51.704Z,5.10
2018-06-27T11:58:49.143Z,4.80
2018-06-27T12:06:42.141Z,5.10
2018-06-27T12:09:34.725Z,4.47
2018-06-27T12:12:10.211Z,5.40
2018-06-27T12:14:39.242Z,7.60
2018-06-27T12:17:08.419Z,5.00
2018-06-27T12:19:37.535Z,5.80
2018-06-27T12:22:06.715Z,5.83
2018-06-27T12:24:35.837Z,10.73
2018-06-27T12:27:04.895Z,5.97
2018-06-27T12:29:34.185Z,5.30
2018-06-27T12:32:03.396Z,4.90
2018-06-27T12:34:35.458Z,5.33
2018-06-27T12:37:04.450Z,6.33
2018-06-27T12:39:33.340Z,5.53
2018-06-27T12:42:02.223Z,4.63
2018-06-27T12:44:41.004Z,6.20
2018-06-27T12:47:09.708Z,6.70
2018-06-27T12:49:40.823Z,4.67
2018-06-27T12:52:09.517Z,7.40
2018-06-27T12:54:38.252Z,4.50
2018-06-27T12:57:07.445Z,8.03
2018-06-27T12:59:36.562Z,4.80
2018-06-27T13:02:05.663Z,5.40
2018-06-27T13:04:35.987Z,4.83
2018-06-27T13:07:05.003Z,5.07
2018-06-27T13:09:34.045Z,5.37
2018-06-27T13:12:03.486Z,4.80
2018-06-27T13:14:32.725Z,5.70
2018-06-27T13:17:03.118Z,4.93
2018-06-27T13:19:33.115Z,4.03
2018-06-27T13:22:02.273Z,4.43
2018-06-27T13:24:34.893Z,4.53
2018-06-27T13:27:25.455Z,7.30
2018-06-27T13:29:54.495Z,6.10
2018-06-27T13:32:23.695Z,5.40
2018-06-27T13:34:52.657Z,4.97
2018-06-27T13:37:21.513Z,7.90
2018-06-27T13:39:50.300Z,5.70
2018-06-27T13:42:19.053Z,6.07
2018-06-27T13:44:48.088Z,5.90
2018-06-27T13:47:18.441Z,6.40
2018-06-27T13:49:48.506Z,4.87
2018-06-27T13:52:23.904Z,7.77
2018-06-27T13:54:57.185Z,5.13
2018-06-27T13:57:27.478Z,5.10
2018-06-27T13:59:58.463Z,7.50
2018-06-27T14:02:27.296Z,4.93
2018-06-27T14:04:56.329Z,6.20
2018-06-27T14:07:25.497Z,5.00
2018-06-27T14:09:55.147Z,6.27
2018-06-27T14:12:24.954Z,5.23
2018-06-27T14:14:58.472Z,5.10
2018-06-27T14:17:30.221Z,6.60
2018-06-27T14:19:59.215Z,5.50
2018-06-27T14:22:31.203Z,6.60
2018-06-27T14:25:00.241Z,5.50
2018-06-27T14:27:31.246Z,4.87
2018-06-27T14:30:00.295Z,5.93
2018-06-27T14:32:29.090Z,5.70
2018-06-27T14:34:59.714Z,5.50
2018-06-27T14:37:28.817Z,5.60
2018-06-27T14:39:57.807Z,6.10
2018-06-27T14:42:26.839Z,6.10
2018-06-27T14:44:55.745Z,6.03
2018-06-27T14:47:24.660Z,5.23
2018-06-27T14:49:53.861Z,4.67
2018-06-27T14:52:23.011Z,5.30
2018-06-27T14:54:52.174Z,7.00
2018-06-27T14:57:21.214Z,6.07
2018-06-27T14:59:50.217Z,4.17
2018-06-27T15:02:19.262Z,6.00
2018-06-27T15:04:48.078Z,4.87
2018-06-27T15:07:16.907Z,5.53
2018-06-27T15:09:45.585Z,12.80
2018-06-27T15:12:14.306Z,6.40
2018-06-27T15:14:43.220Z,6.20
2018-06-27T15:17:13.771Z,5.40
2018-06-27T15:19:50.169Z,5.17
2018-06-27T15:22:19.366Z,5.30
2018-06-27T15:24:48.305Z,22.37
2018-06-27T15:27:18.006Z,10.80
2018-06-27T15:29:47.011Z,13.43
2018-06-27T15:32:16.054Z,5.00
2018-06-27T15:34:45.047Z,5.30
2018-06-27T15:37:14.539Z,6.63
2018-06-27T15:39:46.142Z,15.90
2018-06-27T15:42:15.059Z,4.67
2018-06-27T15:44:44.716Z,4.50
2018-06-27T15:47:18.593Z,4.93
2018-06-27T15:49:47.599Z,4.67
2018-06-27T15:52:16.871Z,5.63
2018-06-27T15:54:46.835Z,5.33
2018-06-27T15:57:16.949Z,6.17
2018-06-27T15:59:51.750Z,6.87
2018-06-27T16:02:20.655Z,4.93
2018-06-27T16:04:49.655Z,4.30
2018-06-27T16:07:19.256Z,6.13
2018-06-27T16:09:49.578Z,8.63
2018-06-27T16:12:21.434Z,5.37
2018-06-27T16:14:50.484Z,5.00
2018-06-27T16:17:25.537Z,3.97
2018-06-27T16:19:54.130Z,5.27
2018-06-27T16:22:23.028Z,4.80
2018-06-27T16:24:52.593Z,5.03
2018-06-27T16:30:11.766Z,4.70
2018-06-27T16:32:40.501Z,4.07
2018-06-27T16:35:10.130Z,5.70
2018-06-27T16:37:46.121Z,6.20
2018-06-27T16:40:16.177Z,5.87
2018-06-27T16:42:45.182Z,4.97
2018-06-27T16:45:17.912Z,5.70
2018-06-27T16:47:47.124Z,6.03
2018-06-27T16:50:16.144Z,5.40
2018-06-27T16:52:45.202Z,4.60
2018-06-27T16:55:15.334Z,4.43
2018-06-27T16:57:44.413Z,9.00
2018-06-27T17:00:13.432Z,4.47
2018-06-27T17:02:42.199Z,5.47
2018-06-27T17:05:17.581Z,4.90
2018-06-27T17:07:46.344Z,4.20
2018-06-27T17:10:15.068Z,4.67
2018-06-27T17:12:44.638Z,4.60
2018-06-27T17:15:19.460Z,4.97
2018-06-27T17:17:54.783Z,7.10
2018-06-27T17:20:23.986Z,7.40
2018-06-27T17:22:53.136Z,7.43
2018-06-27T17:26:11.549Z,7.67
2018-06-27T17:28:43.709Z,8.73
2018-06-27T17:31:14.094Z,8.90
2018-06-27T17:33:43.275Z,8.50
2018-06-27T17:36:12.183Z,8.77
2018-06-27T17:38:41.077Z,8.83
2018-06-27T17:41:09.961Z,10.30
2018-06-27T17:43:38.643Z,9.97
2018-06-27T17:46:07.374Z,9.63
2018-06-27T17:48:36.222Z,10.40
2018-06-27T17:51:05.363Z,10.33
2018-06-27T17:53:34.476Z,9.23
2018-06-27T17:56:29.199Z,8.90
2018-06-27T17:59:30.042Z,10.97
2018-06-27T18:02:04.775Z,10.70
2018-06-27T18:04:34.607Z,13.00
2018-06-27T18:07:05.101Z,11.57
2018-06-27T18:09:35.594Z,10.30
2018-06-27T18:12:05.038Z,10.07
2018-06-27T18:17:13.288Z,9.50
2018-06-27T18:19:45.714Z,11.27
2018-06-27T18:22:20.328Z,10.47
2018-06-27T18:24:50.012Z,10.20
2018-06-27T18:27:20.225Z,12.07
2018-06-27T18:30:02.615Z,11.07
2018-06-27T18:33:11.435Z,10.90
2018-06-27T18:35:53.976Z,13.33
2018-06-27T18:39:24.585Z,16.43
2018-06-27T18:41:56.385Z,12.87
2018-06-27T18:44:43.305Z,11.70
2018-06-27T18:47:23.217Z,13.80
2018-06-27T18:50:07.387Z,11.70
2018-06-27T18:52:36.764Z,12.13
2018-06-27T18:55:15.825Z,13.20
2018-06-27T18:58:04.630Z,12.37
2018-06-27T19:00:39.670Z,11.50
2018-06-27T20:45:41.466Z,11.43
2018-06-27T22:55:14.871Z,5.93
2018-06-27T23:02:57.063Z,7.00
2018-06-27T23:08:31.967Z,6.80
2018-06-27T23:11:17.412Z,6.20
2018-06-27T23:13:52.954Z,5.77
2018-06-27T23:16:26.522Z,5.17
2018-06-27T23:22:27.937Z,5.50
2018-06-27T23:25:02.585Z,6.20
2018-06-27T23:27:33.757Z,5.73
2018-06-27T23:37:35.024Z,5.33
2018-06-27T23:43:30.242Z,4.13
